Time;durP1;ratioP1;P1;durP2;ratioP2;P2;SDS_P1;SDS_P2;PMS_P1;PMS_P2;Temp;Humidity;BMP_temperature;BMP_pressure;BME280_temperature;BME280_humidity;BME280_pressure;Samples;Min_cycle;Max_cycle;Signal;HPM_P1;HPM_P2
2022/07/24 00:00:30;;;;;;;;;;;19.90;62.10;;;;;;5033783;28;19912;-82
2022/07/24 00:02:56;;;;;;;;;;;19.80;62.00;;;;;;5049943;28;19916;-82
2022/07/24 00:05:21;;;;;;;;;;;19.80;62.00;;;;;;5049778;28;19963;-82
2022/07/24 00:07:47;;;;;;;;;;;19.90;62.00;;;;;;5033490;28;19917;-82
2022/07/24 00:10:13;;;;;;;;;;;19.90;62.00;;;;;;5049884;28;19908;-82
2022/07/24 00:12:38;;;;;;;;;;;19.90;62.00;;;;;;5067815;28;19916;-82
2022/07/24 00:15:04;;;;;;;;;;;19.90;62.00;;;;;;5033371;28;19916;-82
2022/07/24 00:17:30;;;;;;;;;;;19.90;62.00;;;;;;5049674;28;19916;-82
2022/07/24 00:19:55;;;;;;;;;;;19.90;62.00;;;;;;5033198;28;20400;-82
2022/07/24 00:22:21;;;;;;;;;;;19.80;62.00;;;;;;5049695;28;19908;-82
2022/07/24 00:24:47;;;;;;;;;;;19.80;62.10;;;;;;5067816;28;20031;-82
2022/07/24 00:27:13;;;;;;;;;;;19.80;62.10;;;;;;5049679;28;19935;-82
2022/07/24 00:29:38;;;;;;;;;;;19.70;62.10;;;;;;5049692;28;20356;-82
2022/07/24 00:32:04;;;;;;;;;;;19.80;62.20;;;;;;5033142;28;19943;-81
2022/07/24 00:34:29;;;;;;;;;;;19.80;62.10;;;;;;5035781;28;20010;-82
2022/07/24 00:36:55;;;;;;;;;;;19.80;62.10;;;;;;5053954;28;19912;-82
2022/07/24 00:39:21;;;;;;;;;;;19.80;62.10;;;;;;5053728;28;20426;-82
2022/07/24 00:41:46;;;;;;;;;;;19.90;62.10;;;;;;5037079;28;19913;-82
2022/07/24 00:44:14;;;;;;;;;;;19.90;62.10;;;;;;5071574;28;19912;-82
2022/07/24 00:46:40;;;;;;;;;;;19.90;62.50;;;;;;5053607;28;20324;-82
2022/07/24 00:49:07;;;;;;;;;;;19.80;62.00;;;;;;5071575;28;19965;-82
2022/07/24 00:51:33;;;;;;;;;;;19.90;62.10;;;;;;5053430;28;19969;-82
2022/07/24 00:53:59;;;;;;;;;;;19.80;62.00;;;;;;5053356;28;19909;-82
2022/07/24 00:56:24;;;;;;;;;;;19.80;62.10;;;;;;5053755;28;19932;-82
2022/07/24 00:58:50;;;;;;;;;;;19.80;62.10;;;;;;5071223;28;20288;-82
2022/07/24 01:01:16;;;;;;;;;;;19.80;62.10;;;;;;5053257;28;19935;-82
2022/07/24 01:03:41;;;;;;;;;;;19.80;62.00;;;;;;5053051;28;20127;-81
2022/07/24 01:06:07;;;;;;;;;;;19.80;62.00;;;;;;5053785;28;19962;-81
2022/07/24 01:08:34;;;;;;;;;;;19.80;62.10;;;;;;5053082;28;19938;-81
2022/07/24 01:11:01;;;;;;;;;;;19.80;62.10;;;;;;5071001;28;19908;-81
2022/07/24 01:13:26;;;;;;;;;;;19.80;62.10;;;;;;5070933;28;20517;-82
2022/07/24 01:15:52;;;;;;;;;;;19.80;62.10;;;;;;5036377;28;19916;-82
2022/07/24 01:18:18;;;;;;;;;;;19.80;62.10;;;;;;5052850;28;19921;-81
2022/07/24 01:20:47;;;;;;;;;;;19.80;62.10;;;;;;5052789;28;20359;-81
2022/07/24 01:23:13;;;;;;;;;;;19.70;62.10;;;;;;5036177;28;19958;-81
2022/07/24 01:25:39;;;;;;;;;;;19.70;62.10;;;;;;5036202;28;20399;-81
2022/07/24 01:28:04;;;;;;;;;;;19.70;62.10;;;;;;5052762;28;19958;-80
2022/07/24 01:30:30;;;;;;;;;;;19.70;62.00;;;;;;5052830;28;19917;-81
2022/07/24 01:32:56;;;;;;;;;;;19.70;62.10;;;;;;5052538;28;19912;-81
2022/07/24 01:35:21;;;;;;;;;;;19.70;62.10;;;;;;5052535;28;20015;-81
2022/07/24 01:37:47;;;;;;;;;;;19.70;62.10;;;;;;5036151;28;19964;-82
2022/07/24 01:40:12;;;;;;;;;;;19.60;62.10;;;;;;5052710;28;20327;-81
2022/07/24 01:42:38;;;;;;;;;;;19.50;62.10;;;;;;5052457;28;19916;-82
2022/07/24 01:45:04;;;;;;;;;;;19.50;62.10;;;;;;5052228;28;20445;-81
2022/07/24 01:47:30;;;;;;;;;;;19.40;62.20;;;;;;5035793;28;19935;-81
2022/07/24 01:49:55;;;;;;;;;;;19.30;62.60;;;;;;5035795;28;19913;-80
2022/07/24 01:52:24;;;;;;;;;;;19.20;62.20;;;;;;5035748;28;20273;-80
2022/07/24 01:54:51;;;;;;;;;;;19.20;62.20;;;;;;5036160;28;19916;-80
2022/07/24 01:57:17;;;;;;;;;;;19.10;62.30;;;;;;5070145;28;20431;-80
2022/07/24 01:59:42;;;;;;;;;;;19.00;62.20;;;;;;5052374;28;19958;-81
2022/07/24 02:02:08;;;;;;;;;;;19.00;62.30;;;;;;5035377;28;19912;-81
2022/07/24 02:04:33;;;;;;;;;;;18.90;62.20;;;;;;5051966;28;19913;-81
2022/07/24 02:06:59;;;;;;;;;;;18.80;62.30;;;;;;5051949;28;20372;-74
2022/07/24 02:09:25;;;;;;;;;;;18.80;62.30;;;;;;5070098;28;20004;-81
2022/07/24 02:11:51;;;;;;;;;;;18.70;62.20;;;;;;5070055;28;19926;-81
2022/07/24 02:14:17;;;;;;;;;;;18.70;62.30;;;;;;5051803;28;19915;-81
2022/07/24 02:16:42;;;;;;;;;;;18.70;62.30;;;;;;5035300;28;19916;-81
2022/07/24 02:19:08;;;;;;;;;;;18.60;62.30;;;;;;5069679;28;20007;-81
2022/07/24 02:21:33;;;;;;;;;;;18.60;62.30;;;;;;5069855;28;20326;-80
2022/07/24 02:23:59;;;;;;;;;;;18.60;62.30;;;;;;5069781;28;20487;-81
2022/07/24 02:26:24;;;;;;;;;;;18.60;62.40;;;;;;5051738;28;19913;-80
2022/07/24 02:28:50;;;;;;;;;;;18.50;62.30;;;;;;5051738;28;20323;-81
2022/07/24 02:31:16;;;;;;;;;;;18.50;62.30;;;;;;5034990;28;20033;-80
2022/07/24 02:33:42;;;;;;;;;;;18.50;62.30;;;;;;5069369;28;19956;-81
2022/07/24 02:36:07;;;;;;;;;;;18.40;62.20;;;;;;5034991;28;20025;-81
2022/07/24 02:38:33;;;;;;;;;;;18.40;62.30;;;;;;5051458;28;19920;-81
2022/07/24 02:40:58;;;;;;;;;;;18.40;62.30;;;;;;5034878;28;19917;-81
2022/07/24 02:43:24;;;;;;;;;;;18.50;62.40;;;;;;5051328;28;20028;-81
2022/07/24 02:45:50;;;;;;;;;;;18.40;62.30;;;;;;5034752;28;19919;-81
2022/07/24 02:48:16;;;;;;;;;;;18.40;62.40;;;;;;5051310;28;20257;-81
2022/07/24 02:50:41;;;;;;;;;;;18.50;62.40;;;;;;5069156;28;20378;-81
2022/07/24 02:53:07;;;;;;;;;;;18.50;62.40;;;;;;5034431;28;20003;-81
2022/07/24 02:55:32;;;;;;;;;;;18.50;62.40;;;;;;5051017;28;19912;-81
2022/07/24 02:57:58;;;;;;;;;;;18.50;62.30;;;;;;5034299;28;19929;-80
2022/07/24 03:00:24;;;;;;;;;;;18.50;62.40;;;;;;5068936;28;19924;-81
2022/07/24 03:02:49;;;;;;;;;;;18.50;62.30;;;;;;5068868;28;19908;-80
2022/07/24 03:05:15;;;;;;;;;;;18.60;62.40;;;;;;5068819;28;19944;-81
2022/07/24 03:07:41;;;;;;;;;;;18.60;62.30;;;;;;5050828;28;19916;-81
2022/07/24 03:10:08;;;;;;;;;;;18.60;62.30;;;;;;5050623;28;19974;-81
2022/07/24 03:12:34;;;;;;;;;;;18.60;62.30;;;;;;5050747;28;19940;-81
2022/07/24 03:14:59;;;;;;;;;;;18.60;62.30;;;;;;5050656;28;19944;-81
2022/07/24 03:17:25;;;;;;;;;;;18.70;62.30;;;;;;5050612;28;19982;-80
2022/07/24 03:19:50;;;;;;;;;;;18.70;62.30;;;;;;5034230;28;19978;-81
2022/07/24 03:22:16;;;;;;;;;;;18.70;62.20;;;;;;5050603;28;20261;-81
2022/07/24 03:24:42;;;;;;;;;;;18.80;62.20;;;;;;5050595;28;19913;-81
2022/07/24 03:27:07;;;;;;;;;;;18.80;62.20;;;;;;5068628;28;19962;-81
2022/07/24 03:29:33;;;;;;;;;;;18.80;62.20;;;;;;5068416;28;19913;-81
2022/07/24 03:31:59;;;;;;;;;;;18.80;62.20;;;;;;5033802;28;20276;-80
2022/07/24 03:34:24;;;;;;;;;;;18.80;62.20;;;;;;5046778;28;20004;-80
2022/07/24 03:36:50;;;;;;;;;;;18.80;62.20;;;;;;5047084;28;19921;-81
2022/07/24 03:39:16;;;;;;;;;;;18.80;62.20;;;;;;5047220;28;19917;-82
2022/07/24 03:41:41;;;;;;;;;;;18.80;62.20;;;;;;5048359;28;19912;-80
2022/07/24 03:44:07;;;;;;;;;;;18.80;62.20;;;;;;5030183;28;19921;-81
2022/07/24 03:46:32;;;;;;;;;;;18.80;62.20;;;;;;5030237;28;19914;-81
2022/07/24 03:48:58;;;;;;;;;;;18.80;62.20;;;;;;5048297;28;20039;-81
2022/07/24 03:51:24;;;;;;;;;;;18.80;62.20;;;;;;5048120;28;19912;-80
2022/07/24 03:53:49;;;;;;;;;;;18.70;62.20;;;;;;5048134;28;20324;-80
2022/07/24 03:56:15;;;;;;;;;;;18.70;62.20;;;;;;5046800;28;20010;-80
2022/07/24 03:58:41;;;;;;;;;;;18.70;62.20;;;;;;5046698;28;20058;-80
2022/07/24 04:01:07;;;;;;;;;;;18.60;62.20;;;;;;5047904;28;19920;-81
2022/07/24 04:03:32;;;;;;;;;;;18.60;62.20;;;;;;5047618;28;19913;-81
2022/07/24 04:05:59;;;;;;;;;;;18.60;62.30;;;;;;5046764;28;19913;-81
2022/07/24 04:08:25;;;;;;;;;;;18.50;62.20;;;;;;5047277;28;19908;-81
2022/07/24 04:10:56;;;;;;;;;;;18.50;62.30;;;;;;5047895;28;20420;-82
2022/07/24 04:13:29;;;;;;;;;;;18.40;62.30;;;;;;5046625;28;19919;-81
2022/07/24 04:15:55;;;;;;;;;;;18.40;62.80;;;;;;5046503;28;19924;-80
2022/07/24 04:18:20;;;;;;;;;;;18.40;62.40;;;;;;5046360;28;20361;-81
2022/07/24 04:20:46;;;;;;;;;;;18.40;62.30;;;;;;5047781;28;19917;-81
2022/07/24 04:23:12;;;;;;;;;;;18.30;62.30;;;;;;5046539;28;19962;-81
2022/07/24 04:25:37;;;;;;;;;;;18.30;62.40;;;;;;5047792;28;20307;-81
2022/07/24 04:28:03;;;;;;;;;;;18.20;62.40;;;;;;5029770;28;19913;-81
2022/07/24 04:30:30;;;;;;;;;;;18.20;62.50;;;;;;5047710;28;20316;-81
2022/07/24 04:32:56;;;;;;;;;;;18.20;62.50;;;;;;5046602;28;20319;-81
2022/07/24 04:35:21;;;;;;;;;;;18.20;62.40;;;;;;5067046;28;19921;-81
2022/07/24 04:37:47;;;;;;;;;;;18.30;62.50;;;;;;5033107;28;20372;-80
2022/07/24 04:40:13;;;;;;;;;;;18.30;62.50;;;;;;5067663;28;19909;-81
2022/07/24 04:42:39;;;;;;;;;;;18.30;62.50;;;;;;5049853;28;20364;-80
2022/07/24 04:45:05;;;;;;;;;;;18.40;62.50;;;;;;5067592;28;19919;-81
2022/07/24 04:47:30;;;;;;;;;;;18.40;62.40;;;;;;5049479;28;19912;-81
2022/07/24 04:49:56;;;;;;;;;;;18.50;62.40;;;;;;5032842;28;19920;-81
2022/07/24 04:52:22;;;;;;;;;;;18.60;62.40;;;;;;5067554;28;20369;-81
2022/07/24 04:54:47;;;;;;;;;;;18.70;62.40;;;;;;5049505;28;19912;-80
2022/07/24 04:57:13;;;;;;;;;;;18.70;62.30;;;;;;5049460;28;19916;-80
2022/07/24 04:59:39;;;;;;;;;;;18.80;62.30;;;;;;5032837;28;19932;-80
2022/07/24 05:02:04;;;;;;;;;;;18.80;62.20;;;;;;5049369;28;19908;-80
2022/07/24 05:04:30;;;;;;;;;;;18.70;62.20;;;;;;5049508;28;19950;-80
2022/07/24 05:06:56;;;;;;;;;;;18.70;62.20;;;;;;5067270;28;19931;-80
2022/07/24 05:09:21;;;;;;;;;;;18.60;62.20;;;;;;5032867;28;19913;-81
2022/07/24 05:11:47;;;;;;;;;;;18.60;62.30;;;;;;5049309;28;19970;-80
2022/07/24 05:14:12;;;;;;;;;;;18.60;62.30;;;;;;5032685;28;19912;-81
2022/07/24 05:16:38;;;;;;;;;;;18.70;62.30;;;;;;5049213;28;19959;-80
2022/07/24 05:19:03;;;;;;;;;;;18.80;62.30;;;;;;5033051;28;20526;-81
2022/07/24 05:21:29;;;;;;;;;;;18.80;62.20;;;;;;5071001;28;19915;-81
2022/07/24 05:23:55;;;;;;;;;;;18.80;62.10;;;;;;5053051;28;19967;-80
2022/07/24 05:26:20;;;;;;;;;;;18.70;62.10;;;;;;5070841;28;19995;-80
2022/07/24 05:28:46;;;;;;;;;;;18.70;62.20;;;;;;5052805;28;20429;-80
2022/07/24 05:31:11;;;;;;;;;;;18.70;62.20;;;;;;5052693;28;19986;-80
2022/07/24 05:33:37;;;;;;;;;;;18.60;62.30;;;;;;5052399;28;19927;-80
2022/07/24 05:36:03;;;;;;;;;;;18.60;62.30;;;;;;5052798;28;19916;-81
2022/07/24 05:38:28;;;;;;;;;;;18.60;62.30;;;;;;5052564;28;19916;-80
2022/07/24 05:40:55;;;;;;;;;;;18.70;62.30;;;;;;5070584;28;19963;-80
2022/07/24 05:43:20;;;;;;;;;;;18.70;62.30;;;;;;5070302;28;19917;-81
2022/07/24 05:45:46;;;;;;;;;;;18.70;62.30;;;;;;5052282;28;19916;-82
2022/07/24 05:48:12;;;;;;;;;;;18.80;62.40;;;;;;5052404;28;20400;-81
2022/07/24 05:50:37;;;;;;;;;;;19.00;62.40;;;;;;5052385;28;19962;-80
2022/07/24 05:53:03;;;;;;;;;;;19.10;62.30;;;;;;5052235;28;19916;-80
2022/07/24 05:55:28;;;;;;;;;;;19.20;62.20;;;;;;5052195;28;19921;-80
2022/07/24 05:57:55;;;;;;;;;;;19.20;62.10;;;;;;5035579;28;19917;-80
2022/07/24 06:00:21;;;;;;;;;;;19.30;62.20;;;;;;5070267;28;20265;-79
2022/07/24 06:02:47;;;;;;;;;;;19.40;62.20;;;;;;5070227;28;20107;-80
2022/07/24 06:05:15;;;;;;;;;;;19.50;62.10;;;;;;5035746;28;19912;-79
2022/07/24 06:07:41;;;;;;;;;;;19.50;62.00;;;;;;5070199;28;19908;-79
2022/07/24 06:10:07;;;;;;;;;;;19.50;62.00;;;;;;5035361;28;20114;-80
2022/07/24 06:12:33;;;;;;;;;;;19.60;62.30;;;;;;5069780;28;19947;-80
2022/07/24 06:14:58;;;;;;;;;;;20.30;62.50;;;;;;5035379;28;19920;-80
2022/07/24 06:17:24;;;;;;;;;;;21.50;61.70;;;;;;5070014;28;19952;-80
2022/07/24 06:19:49;;;;;;;;;;;22.80;60.40;;;;;;5069834;28;19912;-80
2022/07/24 06:22:15;;;;;;;;;;;23.70;59.30;;;;;;5051846;28;19920;-80
2022/07/24 06:24:40;;;;;;;;;;;24.40;58.60;;;;;;5051694;28;19909;-79
2022/07/24 06:27:06;;;;;;;;;;;24.90;58.00;;;;;;5051648;28;19982;-80
2022/07/24 06:29:32;;;;;;;;;;;25.10;57.40;;;;;;5052075;28;19961;-79
2022/07/24 06:31:57;;;;;;;;;;;24.50;57.40;;;;;;5050539;28;19912;-79
2022/07/24 06:34:26;;;;;;;;;;;24.20;58.80;;;;;;5051517;28;19928;-80
2022/07/24 06:36:51;;;;;;;;;;;24.50;59.00;;;;;;5035198;28;20292;-80
2022/07/24 06:39:17;;;;;;;;;;;25.30;58.90;;;;;;5069244;28;19927;-80
2022/07/24 06:41:43;;;;;;;;;;;26.00;58.40;;;;;;5034753;28;19917;-80
2022/07/24 06:44:08;;;;;;;;;;;25.60;57.60;;;;;;5069281;28;20421;-80
2022/07/24 06:46:34;;;;;;;;;;;24.90;58.20;;;;;;5051418;28;19919;-82
2022/07/24 06:49:00;;;;;;;;;;;24.20;58.90;;;;;;5051414;28;20374;-81
2022/07/24 06:51:25;;;;;;;;;;;24.20;59.70;;;;;;5051083;28;19958;-81
2022/07/24 06:53:51;;;;;;;;;;;24.20;59.30;;;;;;5051041;28;20014;-81
2022/07/24 06:56:16;;;;;;;;;;;24.50;59.50;;;;;;5051172;28;19908;-81
2022/07/24 06:58:42;;;;;;;;;;;24.80;59.30;;;;;;5069025;28;19916;-81
2022/07/24 07:01:07;;;;;;;;;;;25.50;59.00;;;;;;5068999;28;20372;-81
2022/07/24 07:03:33;;;;;;;;;;;25.90;58.10;;;;;;5034252;28;19919;-81
2022/07/24 07:05:59;;;;;;;;;;;25.40;57.90;;;;;;5050925;28;19916;-80
2022/07/24 07:08:24;;;;;;;;;;;24.60;58.50;;;;;;5068812;28;19938;-80
2022/07/24 07:10:50;;;;;;;;;;;24.00;59.30;;;;;;5068819;28;19919;-80
2022/07/24 07:13:15;;;;;;;;;;;23.40;59.90;;;;;;5050746;28;19916;-81
2022/07/24 07:15:41;;;;;;;;;;;23.00;60.60;;;;;;5069286;28;19913;-80
2022/07/24 07:18:06;;;;;;;;;;;23.00;61.50;;;;;;5070378;28;20288;-81
2022/07/24 07:20:32;;;;;;;;;;;23.90;61.70;;;;;;5050595;28;20360;-80
2022/07/24 07:22:58;;;;;;;;;;;24.90;61.00;;;;;;5068368;28;20300;-80
2022/07/24 07:25:23;;;;;;;;;;;25.90;60.40;;;;;;5068268;28;19919;-80
2022/07/24 07:27:49;;;;;;;;;;;26.30;59.50;;;;;;5068745;28;20336;-81
2022/07/24 07:30:15;;;;;;;;;;;26.20;59.30;;;;;;5051260;28;20294;-81
2022/07/24 07:32:40;;;;;;;;;;;25.90;59.40;;;;;;5051350;28;19908;-80
2022/07/24 07:35:06;;;;;;;;;;;25.40;59.60;;;;;;5050229;28;19931;-81
2022/07/24 07:37:32;;;;;;;;;;;24.90;60.00;;;;;;5068394;28;19916;-80
2022/07/24 07:39:58;;;;;;;;;;;24.80;60.60;;;;;;5068199;28;19912;-81
2022/07/24 07:42:23;;;;;;;;;;;25.10;61.00;;;;;;5050002;28;19952;-80
2022/07/24 07:44:49;;;;;;;;;;;25.20;60.70;;;;;;5068101;28;19965;-81
2022/07/24 07:47:14;;;;;;;;;;;24.90;60.40;;;;;;5068373;28;19920;-81
2022/07/24 07:49:40;;;;;;;;;;;24.50;60.60;;;;;;5050326;28;19919;-82
2022/07/24 07:52:05;;;;;;;;;;;24.30;61.10;;;;;;5070055;28;19924;-81
2022/07/24 07:54:31;;;;;;;;;;;24.50;61.30;;;;;;5068293;28;20538;-81
2022/07/24 07:56:56;;;;;;;;;;;24.50;61.00;;;;;;5050317;28;19978;-80
2022/07/24 07:59:22;;;;;;;;;;;24.30;61.10;;;;;;5050443;28;19917;-81
2022/07/24 08:01:48;;;;;;;;;;;24.10;61.10;;;;;;5033302;28;19913;-80
2022/07/24 08:04:13;;;;;;;;;;;23.80;61.30;;;;;;5049849;28;19918;-81
2022/07/24 08:06:39;;;;;;;;;;;23.50;61.50;;;;;;5050105;28;19924;-81
2022/07/24 08:09:04;;;;;;;;;;;23.40;61.70;;;;;;5069421;28;19908;-82
2022/07/24 08:11:30;;;;;;;;;;;23.40;61.90;;;;;;5056894;28;19913;-82
2022/07/24 08:13:55;;;;;;;;;;;23.40;61.90;;;;;;5062699;28;19935;-82
2022/07/24 08:16:21;;;;;;;;;;;23.50;62.00;;;;;;5066498;28;19913;-82
2022/07/24 08:18:47;;;;;;;;;;;23.50;61.80;;;;;;5085001;28;20320;-82
2022/07/24 08:21:15;;;;;;;;;;;23.40;61.80;;;;;;5087254;28;20272;-83
2022/07/24 08:23:41;;;;;;;;;;;23.30;61.90;;;;;;5068687;28;19913;-82
2022/07/24 08:26:06;;;;;;;;;;;23.30;62.00;;;;;;5079773;28;19931;-82
2022/07/24 08:28:32;;;;;;;;;;;23.30;62.00;;;;;;5063482;28;19901;-81
2022/07/24 08:30:57;;;;;;;;;;;23.40;62.50;;;;;;5064964;28;19984;-82
2022/07/24 08:33:23;;;;;;;;;;;23.50;62.00;;;;;;5084782;28;19922;-82
2022/07/24 08:35:49;;;;;;;;;;;23.60;62.00;;;;;;5052551;28;19917;-83
2022/07/24 08:38:14;;;;;;;;;;;23.70;62.10;;;;;;5068976;28;19908;-83
2022/07/24 08:40:40;;;;;;;;;;;24.00;62.00;;;;;;5065307;28;19912;-83
2022/07/24 08:43:07;;;;;;;;;;;24.30;61.90;;;;;;5065599;28;19920;-83
2022/07/24 08:45:39;;;;;;;;;;;24.40;61.50;;;;;;5066634;28;19908;-84
2022/07/24 08:48:05;;;;;;;;;;;24.40;61.30;;;;;;5066397;28;19908;-83
2022/07/24 08:50:31;;;;;;;;;;;24.40;61.40;;;;;;5052223;28;19912;-83
2022/07/24 08:52:57;;;;;;;;;;;24.30;61.30;;;;;;5089369;28;19917;-83
2022/07/24 08:55:23;;;;;;;;;;;24.50;61.80;;;;;;5091348;28;19924;-83
2022/07/24 08:57:49;;;;;;;;;;;24.90;61.80;;;;;;5088455;28;19916;-83
2022/07/24 09:00:15;;;;;;;;;;;25.20;61.70;;;;;;5069642;28;19922;-83
2022/07/24 09:02:41;;;;;;;;;;;25.90;62.30;;;;;;5066876;28;19944;-84
2022/07/24 09:05:06;;;;;;;;;;;26.70;61.90;;;;;;5047103;28;20023;-83
2022/07/24 09:07:32;;;;;;;;;;;27.20;62.00;;;;;;5071331;28;19912;-82
2022/07/24 09:10:02;;;;;;;;;;;27.50;61.20;;;;;;5078898;28;20003;-81
2022/07/24 09:12:32;;;;;;;;;;;27.50;61.00;;;;;;5077189;28;19909;-81
2022/07/24 09:14:58;;;;;;;;;;;27.40;61.30;;;;;;5075159;28;19944;-81
2022/07/24 09:17:24;;;;;;;;;;;28.10;61.70;;;;;;5058378;28;19909;-81
2022/07/24 09:19:52;;;;;;;;;;;28.90;61.70;;;;;;5040841;28;19963;-81
2022/07/24 09:22:33;;;;;;;;;;;29.30;61.00;;;;;;5075421;28;19909;-81
2022/07/24 09:25:05;;;;;;;;;;;29.10;60.40;;;;;;5079093;28;19920;-80
2022/07/24 09:27:30;;;;;;;;;;;28.90;60.80;;;;;;5058159;28;20296;-81
2022/07/24 09:29:57;;;;;;;;;;;28.50;60.50;;;;;;5078610;28;19908;-81
2022/07/24 09:32:23;;;;;;;;;;;28.00;60.90;;;;;;5057285;28;20014;-81
2022/07/24 09:34:50;;;;;;;;;;;28.00;61.40;;;;;;5072834;28;19964;-81
2022/07/24 09:37:16;;;;;;;;;;;28.40;61.90;;;;;;5072763;28;19908;-82
2022/07/24 09:39:41;;;;;;;;;;;28.50;61.50;;;;;;5056525;28;19913;-81
2022/07/24 09:42:07;;;;;;;;;;;28.60;61.50;;;;;;5073158;28;20379;-81
2022/07/24 09:44:33;;;;;;;;;;;29.00;61.80;;;;;;5056291;28;19915;-82
2022/07/24 09:46:59;;;;;;;;;;;29.80;61.90;;;;;;5038412;28;20273;-82
2022/07/24 09:49:25;;;;;;;;;;;29.70;61.30;;;;;;5072423;28;19926;-81
2022/07/24 09:52:12;;;;;;;;;;;30.20;62.10;;;;;;5071118;28;19920;-81
2022/07/24 09:54:42;;;;;;;;;;;30.70;61.70;;;;;;5070921;28;19908;-81
2022/07/24 09:57:22;;;;;;;;;;;30.40;60.80;;;;;;5072248;28;20355;-80
2022/07/24 09:59:58;;;;;;;;;;;30.10;61.10;;;;;;5053960;28;19923;-81
2022/07/24 10:02:26;;;;;;;;;;;29.90;61.30;;;;;;5052537;28;19908;-80
2022/07/24 10:04:51;;;;;;;;;;;29.60;61.30;;;;;;5071753;28;20025;-80
2022/07/24 10:07:18;;;;;;;;;;;29.60;61.50;;;;;;5053181;28;20562;-81
2022/07/24 10:09:45;;;;;;;;;;;29.40;61.50;;;;;;5072297;28;19937;-80
2022/07/24 10:12:12;;;;;;;;;;;29.30;61.40;;;;;;5071162;28;20426;-80
2022/07/24 10:14:38;;;;;;;;;;;29.20;61.60;;;;;;5055204;28;19916;-81
2022/07/24 10:17:05;;;;;;;;;;;29.20;61.90;;;;;;5037128;28;20298;-80
2022/07/24 10:19:38;;;;;;;;;;;29.30;61.80;;;;;;5053280;28;19920;-81
2022/07/24 10:22:08;;;;;;;;;;;29.40;61.80;;;;;;5070220;28;20008;-81
2022/07/24 10:24:49;;;;;;;;;;;29.30;61.40;;;;;;5070368;28;20349;-81
2022/07/24 10:27:23;;;;;;;;;;;29.30;61.60;;;;;;5070928;28;19936;-81
2022/07/24 10:29:51;;;;;;;;;;;29.20;61.80;;;;;;5071379;28;20245;-80
2022/07/24 10:32:17;;;;;;;;;;;29.30;61.90;;;;;;5071868;28;19909;-81
2022/07/24 10:34:47;;;;;;;;;;;29.50;61.90;;;;;;5051525;28;19924;-80
2022/07/24 10:37:13;;;;;;;;;;;29.60;61.90;;;;;;5053353;28;19912;-81
2022/07/24 10:39:44;;;;;;;;;;;30.10;62.00;;;;;;5054022;28;19994;-80
2022/07/24 10:42:10;;;;;;;;;;;30.70;62.40;;;;;;5071018;28;19916;-81
2022/07/24 10:44:36;;;;;;;;;;;31.60;62.50;;;;;;5072240;28;19913;-81
2022/07/24 10:47:12;;;;;;;;;;;32.40;62.00;;;;;;5052530;28;19920;-81
2022/07/24 10:49:45;;;;;;;;;;;32.70;61.60;;;;;;5068857;28;19947;-80
2022/07/24 10:52:11;;;;;;;;;;;32.50;61.40;;;;;;5071866;28;19954;-81
2022/07/24 10:54:37;;;;;;;;;;;32.80;61.90;;;;;;5053713;28;19948;-81
2022/07/24 10:57:03;;;;;;;;;;;33.20;61.90;;;;;;5070005;28;19912;-82
2022/07/24 10:59:33;;;;;;;;;;;33.10;61.40;;;;;;5074325;28;19916;-82
2022/07/24 11:02:19;;;;;;;;;;;32.50;60.90;;;;;;5070911;28;19912;-80
2022/07/24 11:04:44;;;;;;;;;;;31.70;61.00;;;;;;5070104;28;19909;-81
2022/07/24 11:07:12;;;;;;;;;;;31.10;61.80;;;;;;5034790;28;20015;-81
2022/07/24 11:10:07;;;;;;;;;;;31.50;62.60;;;;;;5069995;28;20006;-81
2022/07/24 11:12:40;;;;;;;;;;;32.00;62.40;;;;;;5072573;28;19976;-82
2022/07/24 11:17:50;;;;;;;;;;;31.80;61.50;;;;;;5054109;28;19964;-80
2022/07/24 11:20:17;;;;;;;;;;;31.20;61.40;;;;;;5052550;28;19913;-82
2022/07/24 11:22:50;;;;;;;;;;;31.00;61.90;;;;;;5053438;28;19915;-81
2022/07/24 11:25:18;;;;;;;;;;;30.80;61.80;;;;;;5069822;28;19912;-81
2022/07/24 11:27:49;;;;;;;;;;;30.70;62.30;;;;;;5069481;28;19936;-81
2022/07/24 11:30:15;;;;;;;;;;;31.40;62.90;;;;;;5055649;28;19908;-81
2022/07/24 11:32:41;;;;;;;;;;;31.90;62.50;;;;;;5073847;28;19909;-82
2022/07/24 11:35:08;;;;;;;;;;;32.20;62.80;;;;;;5070188;28;20348;-82
2022/07/24 11:37:34;;;;;;;;;;;32.60;62.70;;;;;;5072231;28;19908;-81
2022/07/24 11:40:00;;;;;;;;;;;32.80;62.00;;;;;;5072503;28;19908;-82
2022/07/24 11:42:25;;;;;;;;;;;32.40;62.00;;;;;;5071100;28;19923;-82
2022/07/24 11:44:51;;;;;;;;;;;32.00;61.90;;;;;;5050481;28;20269;-82
2022/07/24 11:47:18;;;;;;;;;;;31.70;61.80;;;;;;5069632;28;19913;-81
2022/07/24 11:49:45;;;;;;;;;;;31.20;61.60;;;;;;5051119;28;19995;-81
2022/07/24 11:52:24;;;;;;;;;;;30.60;61.50;;;;;;5069154;28;19912;-81
2022/07/24 11:54:51;;;;;;;;;;;30.00;61.80;;;;;;5051709;28;19919;-82
2022/07/24 11:57:27;;;;;;;;;;;30.10;63.10;;;;;;5052728;28;19909;-80
2022/07/24 11:59:53;;;;;;;;;;;30.80;63.50;;;;;;5069648;28;20007;-83
2022/07/24 12:02:19;;;;;;;;;;;31.40;63.30;;;;;;5050745;28;19917;-82
2022/07/24 12:04:45;;;;;;;;;;;32.00;63.20;;;;;;5068426;28;20299;-83
2022/07/24 12:07:12;;;;;;;;;;;31.80;62.30;;;;;;5034944;28;20167;-83
2022/07/24 12:09:58;;;;;;;;;;;31.50;62.00;;;;;;5051035;28;19935;-83
2022/07/24 12:12:25;;;;;;;;;;;30.90;61.90;;;;;;5051654;28;19957;-82
2022/07/24 12:14:52;;;;;;;;;;;30.50;62.60;;;;;;5051630;28;19912;-82
2022/07/24 12:17:18;;;;;;;;;;;30.60;63.00;;;;;;5051427;28;19908;-83
2022/07/24 12:19:51;;;;;;;;;;;30.90;63.30;;;;;;5050583;28;20352;-83
2022/07/24 12:22:17;;;;;;;;;;;31.30;62.50;;;;;;5049521;28;19909;-82
2022/07/24 12:24:42;;;;;;;;;;;31.00;61.70;;;;;;5067494;28;20361;-81
2022/07/24 12:27:08;;;;;;;;;;;30.50;61.50;;;;;;5068351;28;19936;-82
2022/07/24 12:29:41;;;;;;;;;;;30.00;61.50;;;;;;5069534;28;20418;-81
2022/07/24 12:32:14;;;;;;;;;;;29.90;62.40;;;;;;5054286;28;19913;-82
2022/07/24 12:34:41;;;;;;;;;;;29.90;62.00;;;;;;5072057;28;19951;-83
2022/07/24 12:37:15;;;;;;;;;;;29.40;61.60;;;;;;5073879;28;19913;-81
2022/07/24 12:39:48;;;;;;;;;;;29.00;61.70;;;;;;5072937;28;20289;-81
2022/07/24 12:42:13;;;;;;;;;;;28.60;61.80;;;;;;5072642;28;20330;-81
2022/07/24 12:44:42;;;;;;;;;;;28.50;62.00;;;;;;5075002;28;19912;-81
2022/07/24 12:47:08;;;;;;;;;;;28.30;62.00;;;;;;5075174;28;20012;-80
2022/07/24 12:49:41;;;;;;;;;;;28.10;62.10;;;;;;5072406;28;19951;-81
2022/07/24 12:52:18;;;;;;;;;;;28.00;62.00;;;;;;5072225;28;19931;-81
2022/07/24 12:54:45;;;;;;;;;;;27.80;61.90;;;;;;5052910;28;19912;-81
2022/07/24 12:57:11;;;;;;;;;;;27.70;62.00;;;;;;5056356;28;20184;-81
2022/07/24 12:59:41;;;;;;;;;;;27.60;62.10;;;;;;5072440;28;19920;-81
2022/07/24 13:02:10;;;;;;;;;;;27.50;62.20;;;;;;5071658;28;19958;-82
2022/07/24 13:04:42;;;;;;;;;;;27.60;62.20;;;;;;5053729;28;19946;-81
2022/07/24 13:07:08;;;;;;;;;;;27.90;62.70;;;;;;5072630;28;19970;-82
2022/07/24 13:09:34;;;;;;;;;;;28.50;62.70;;;;;;5072974;28;20284;-82
2022/07/24 13:12:00;;;;;;;;;;;29.10;62.80;;;;;;5058218;28;19913;-82
2022/07/24 13:14:26;;;;;;;;;;;29.50;62.60;;;;;;5062029;28;19931;-81
2022/07/24 13:16:52;;;;;;;;;;;29.40;61.80;;;;;;5058750;28;19916;-81
2022/07/24 13:19:19;;;;;;;;;;;29.10;61.80;;;;;;5075956;28;19913;-82
2022/07/24 13:21:45;;;;;;;;;;;28.80;61.70;;;;;;5073040;28;19935;-81
2022/07/24 13:24:12;;;;;;;;;;;28.40;61.50;;;;;;5077016;28;19966;-82
2022/07/24 13:26:38;;;;;;;;;;;28.10;61.80;;;;;;5054984;28;19916;-82
2022/07/24 13:29:04;;;;;;;;;;;28.00;62.10;;;;;;5056136;28;19958;-82
2022/07/24 13:31:29;;;;;;;;;;;27.90;62.10;;;;;;5073806;28;20280;-82
2022/07/24 13:33:55;;;;;;;;;;;27.80;61.90;;;;;;5074795;28;20254;-83
2022/07/24 13:36:20;;;;;;;;;;;27.80;61.80;;;;;;5072334;28;19957;-82
2022/07/24 13:38:46;;;;;;;;;;;27.50;61.60;;;;;;5071969;28;20382;-81
2022/07/24 13:41:12;;;;;;;;;;;27.40;61.70;;;;;;5054666;28;20003;-82
2022/07/24 13:43:38;;;;;;;;;;;27.30;61.80;;;;;;5073056;28;19912;-81
2022/07/24 13:46:04;;;;;;;;;;;27.40;61.90;;;;;;5040614;28;19913;-81
2022/07/24 13:48:30;;;;;;;;;;;27.60;61.80;;;;;;5075266;28;19909;-82
2022/07/24 13:50:55;;;;;;;;;;;27.60;61.80;;;;;;5037461;28;20003;-81
2022/07/24 13:53:21;;;;;;;;;;;27.60;61.70;;;;;;5053406;28;20353;-82
2022/07/24 13:55:47;;;;;;;;;;;27.50;61.60;;;;;;5056226;28;20439;-82
2022/07/24 13:58:14;;;;;;;;;;;27.50;61.60;;;;;;5054969;28;20332;-79
2022/07/24 14:00:39;;;;;;;;;;;27.40;61.60;;;;;;5070779;28;20002;-80
2022/07/24 14:03:05;;;;;;;;;;;27.40;61.60;;;;;;5070394;28;20003;-80
2022/07/24 14:05:30;;;;;;;;;;;27.40;61.60;;;;;;5072996;28;19917;-82
2022/07/24 14:07:56;;;;;;;;;;;27.40;61.60;;;;;;5054563;28;19957;-82
2022/07/24 14:10:22;;;;;;;;;;;27.40;61.40;;;;;;5056083;28;19942;-82
2022/07/24 14:12:48;;;;;;;;;;;27.30;61.40;;;;;;5073711;28;20346;-82
2022/07/24 14:15:14;;;;;;;;;;;27.30;61.60;;;;;;5075560;28;20330;-82